Stove Pipe Wells, California
Current Conditions -  °F | °C
As of 5:56 AM on Thursday 30 Oct 2014 (Local Time) from KNID Reporting Station
Broken Clouds Broken Clouds  
Wind Chill: 47°   Ceiling: 25000
Heat Index: 47°   Visibility: 10mi
Dew Point: 15°   Wind: 3mph
Humidity: 28%   Direction: 240°WSW
Pressure: 30.05"   Gusts: NA
Location:  36.3785°N, 117.161°W
Report Text: KNID 301256Z 24003KT 10SM BKN250 08/M09 A3005 RMK AO2 SLP169 T00831094 $
Loading
Personal Weather Stations






























Interactive Weather Map New forecast layout! Learn more

10-Day Weather Forecast

Advertisements
Track Severe Weather on mobile